createdAt,value
2017-11-30T00:00:35.800Z,18.27
2017-11-30T00:03:03.389Z,18.00
2017-11-30T00:05:31.728Z,17.83
2017-11-30T00:07:59.302Z,20.30
2017-11-30T00:10:27.619Z,17.60
2017-11-30T00:12:55.178Z,18.20
2017-11-30T00:15:22.752Z,18.45
2017-11-30T00:17:50.329Z,18.60
2017-11-30T00:20:17.903Z,18.83
2017-11-30T00:22:45.474Z,19.42
2017-11-30T00:25:13.048Z,19.33
2017-11-30T00:27:40.618Z,18.40
2017-11-30T00:30:08.201Z,19.20
2017-11-30T00:32:35.768Z,17.52
2017-11-30T00:35:03.352Z,16.90
2017-11-30T00:37:30.935Z,17.62
2017-11-30T00:39:58.518Z,18.77
2017-11-30T00:42:38.705Z,17.98
2017-11-30T00:45:06.264Z,18.15
2017-11-30T00:47:33.845Z,17.70
2017-11-30T00:50:02.192Z,18.10
2017-11-30T00:52:29.772Z,17.98
2017-11-30T00:54:57.318Z,17.25
2017-11-30T00:57:24.911Z,16.95
2017-11-30T00:59:53.266Z,17.37
2017-11-30T01:02:20.834Z,17.67
2017-11-30T01:04:48.395Z,17.00
2017-11-30T01:07:15.992Z,18.10
2017-11-30T01:09:44.190Z,17.98
2017-11-30T01:12:12.537Z,17.23
2017-11-30T01:14:40.123Z,17.02
2017-11-30T01:17:08.641Z,18.25
2017-11-30T01:19:36.222Z,16.65
2017-11-30T01:22:04.550Z,18.12
2017-11-30T01:24:32.092Z,17.02
2017-11-30T01:26:59.663Z,16.50
2017-11-30T01:29:27.994Z,17.17
2017-11-30T01:31:55.563Z,16.48
2017-11-30T01:34:23.134Z,18.35
2017-11-30T01:36:50.695Z,18.02
2017-11-30T01:39:18.248Z,15.75
2017-11-30T01:41:45.829Z,16.30
2017-11-30T01:44:13.373Z,17.37
2017-11-30T01:46:40.970Z,16.95
2017-11-30T01:49:08.513Z,16.92
2017-11-30T01:51:36.887Z,18.12
2017-11-30T01:54:04.445Z,17.17
2017-11-30T01:56:31.999Z,17.37
2017-11-30T01:58:59.576Z,16.62
2017-11-30T02:01:27.146Z,17.35
2017-11-30T02:03:54.708Z,18.37
2017-11-30T02:06:22.293Z,18.45
2017-11-30T02:08:49.861Z,18.87
2017-11-30T02:11:17.427Z,18.10
2017-11-30T02:13:45.013Z,18.92
2017-11-30T02:16:13.330Z,19.17
2017-11-30T02:18:40.923Z,18.37
2017-11-30T02:21:08.501Z,19.20
2017-11-30T02:23:36.073Z,19.02
2017-11-30T02:26:03.650Z,18.37
2017-11-30T02:28:31.227Z,18.02
2017-11-30T02:30:58.820Z,18.55
2017-11-30T02:33:26.417Z,19.10
2017-11-30T02:35:54.004Z,19.15
2017-11-30T02:38:21.583Z,20.00
2017-11-30T02:40:49.237Z,19.67
2017-11-30T02:43:16.803Z,19.58
2017-11-30T02:45:44.366Z,20.25
2017-11-30T02:48:12.718Z,16.00
2017-11-30T02:50:40.300Z,15.63
2017-11-30T02:53:07.908Z,15.93
2017-11-30T02:55:35.503Z,15.93
2017-11-30T02:58:03.066Z,14.52
2017-11-30T03:00:30.649Z,16.12
2017-11-30T03:02:58.972Z,15.10
2017-11-30T03:05:26.546Z,15.30
2017-11-30T03:07:54.863Z,15.57
2017-11-30T03:10:22.436Z,16.37
2017-11-30T03:12:49.993Z,16.17
2017-11-30T03:15:17.587Z,15.52
2017-11-30T03:17:45.161Z,16.92
2017-11-30T03:20:12.719Z,15.82
2017-11-30T03:22:41.046Z,16.73
2017-11-30T03:25:08.612Z,17.50
2017-11-30T03:27:36.954Z,17.40
2017-11-30T03:30:04.547Z,16.95
2017-11-30T03:32:32.874Z,17.30
2017-11-30T03:35:00.442Z,16.08
2017-11-30T03:37:28.773Z,16.00
2017-11-30T03:39:56.389Z,18.58
2017-11-30T03:42:23.934Z,16.55
2017-11-30T03:44:51.506Z,17.90
2017-11-30T03:47:19.098Z,18.02
2017-11-30T03:49:48.088Z,18.25
2017-11-30T03:52:16.445Z,17.42
2017-11-30T03:54:44.801Z,17.87
2017-11-30T03:57:13.130Z,17.85
2017-11-30T03:59:40.711Z,18.70
2017-11-30T04:02:08.293Z,17.12
2017-11-30T04:04:36.694Z,15.70
2017-11-30T04:07:04.257Z,18.50
2017-11-30T04:09:31.819Z,18.27
2017-11-30T04:12:00.185Z,21.40
2017-11-30T04:14:27.752Z,21.48
2017-11-30T04:16:55.341Z,20.58
2017-11-30T04:19:22.894Z,19.77
2017-11-30T04:21:50.447Z,20.67
2017-11-30T04:24:18.018Z,19.37
2017-11-30T04:26:46.391Z,20.42
2017-11-30T04:29:13.971Z,18.73
2017-11-30T04:31:41.548Z,20.23
2017-11-30T04:34:09.113Z,19.00
2017-11-30T04:36:36.673Z,18.98
2017-11-30T04:39:04.242Z,21.17
2017-11-30T04:41:31.843Z,21.08
2017-11-30T04:43:59.394Z,21.87
2017-11-30T04:46:27.748Z,19.67
2017-11-30T04:48:55.335Z,19.50
2017-11-30T04:51:24.530Z,20.40
2017-11-30T04:53:52.110Z,19.37
2017-11-30T04:56:20.128Z,19.30
2017-11-30T04:58:47.689Z,19.37
2017-11-30T05:01:15.246Z,18.87
2017-11-30T05:03:42.835Z,17.52
2017-11-30T05:06:11.453Z,18.08
2017-11-30T05:08:39.014Z,17.90
2017-11-30T05:11:06.624Z,18.25
2017-11-30T05:13:34.182Z,18.62
2017-11-30T05:16:02.633Z,18.25
2017-11-30T05:18:30.209Z,17.87
2017-11-30T05:20:58.287Z,18.10
2017-11-30T05:23:25.876Z,17.42
2017-11-30T05:25:53.514Z,17.95
2017-11-30T05:28:21.084Z,16.65
2017-11-30T05:30:48.683Z,18.08
2017-11-30T05:33:16.251Z,16.98
2017-11-30T05:35:44.587Z,15.25
2017-11-30T05:38:12.162Z,15.90
2017-11-30T05:40:39.721Z,14.05
2017-11-30T05:43:08.054Z,14.00
2017-11-30T05:45:35.644Z,14.10
2017-11-30T05:48:03.975Z,14.87
2017-11-30T05:50:31.553Z,15.32
2017-11-30T05:52:59.164Z,15.88
2017-11-30T05:55:26.708Z,16.25
2017-11-30T05:57:54.290Z,16.27
2017-11-30T06:00:21.870Z,15.95
2017-11-30T06:02:49.425Z,16.33
2017-11-30T06:05:17.032Z,17.12
2017-11-30T06:07:44.578Z,17.17
2017-11-30T06:10:12.175Z,15.80
2017-11-30T06:12:39.736Z,17.05
2017-11-30T06:15:07.333Z,16.40
2017-11-30T06:17:34.938Z,17.05
2017-11-30T06:20:03.291Z,16.45
2017-11-30T06:22:31.636Z,16.92
2017-11-30T06:24:59.975Z,15.90
2017-11-30T06:27:27.557Z,16.27
2017-11-30T06:29:55.152Z,16.00
2017-11-30T06:32:22.715Z,16.60
2017-11-30T06:34:51.061Z,15.25
2017-11-30T06:37:18.959Z,15.15
2017-11-30T06:39:46.524Z,16.37
2017-11-30T06:42:14.139Z,15.75
2017-11-30T06:44:41.725Z,15.93
2017-11-30T06:47:09.301Z,16.48
2017-11-30T06:49:38.379Z,15.07
2017-11-30T06:52:05.930Z,16.75
2017-11-30T06:54:34.269Z,17.12
2017-11-30T06:57:01.859Z,16.60
2017-11-30T06:59:29.472Z,16.60
2017-11-30T07:01:59.904Z,17.23
2017-11-30T07:04:27.476Z,16.17
2017-11-30T07:06:55.051Z,17.33
2017-11-30T07:09:22.625Z,17.48
2017-11-30T07:11:50.207Z,17.17
2017-11-30T07:14:17.779Z,16.55
2017-11-30T07:16:46.973Z,17.15
2017-11-30T07:19:15.513Z,17.33
2017-11-30T07:21:43.067Z,15.30
2017-11-30T07:24:10.646Z,17.55
2017-11-30T07:26:38.974Z,15.90
2017-11-30T07:29:06.532Z,16.77
2017-11-30T07:31:34.125Z,16.83
2017-11-30T07:34:03.446Z,16.25
2017-11-30T07:36:31.041Z,15.25
2017-11-30T07:38:59.373Z,16.00
2017-11-30T07:41:26.958Z,14.75
2017-11-30T07:43:54.523Z,16.00
2017-11-30T07:46:22.112Z,16.25
2017-11-30T07:48:49.671Z,15.80
2017-11-30T07:51:17.268Z,14.75
2017-11-30T07:53:44.853Z,14.45
2017-11-30T07:56:12.420Z,15.55
2017-11-30T07:58:40.735Z,15.00
2017-11-30T08:01:08.288Z,14.30
2017-11-30T08:03:35.851Z,14.90
2017-11-30T08:06:03.464Z,15.10
2017-11-30T08:08:31.039Z,15.57
2017-11-30T08:10:59.388Z,15.07
2017-11-30T08:13:27.722Z,16.30
2017-11-30T08:15:55.893Z,16.08
2017-11-30T08:18:23.448Z,16.83
2017-11-30T08:20:51.923Z,16.80
2017-11-30T08:23:19.483Z,15.20
2017-11-30T08:25:47.055Z,17.20
2017-11-30T08:28:14.622Z,16.17
2017-11-30T08:30:42.208Z,14.35
2017-11-30T08:33:09.792Z,15.90
2017-11-30T08:35:37.366Z,15.52
2017-11-30T08:38:04.952Z,14.10
2017-11-30T08:40:32.561Z,14.75
2017-11-30T08:43:00.903Z,13.73
2017-11-30T08:45:30.526Z,13.13
2017-11-30T08:47:58.099Z,12.93
2017-11-30T08:50:25.694Z,12.77
2017-11-30T08:52:53.537Z,13.40
2017-11-30T08:55:22.068Z,12.25
2017-11-30T08:57:49.618Z,12.82
2017-11-30T09:00:17.215Z,13.90
2017-11-30T09:02:44.786Z,14.82
2017-11-30T09:05:13.109Z,14.82
2017-11-30T09:07:40.694Z,13.65
2017-11-30T09:10:09.034Z,14.50
2017-11-30T09:12:37.365Z,14.95
2017-11-30T09:15:04.947Z,14.25
2017-11-30T09:17:33.283Z,16.08
2017-11-30T09:20:00.853Z,16.20
2017-11-30T09:22:28.417Z,16.85
2017-11-30T09:24:56.747Z,17.85
2017-11-30T09:27:24.297Z,15.98
2017-11-30T09:29:51.883Z,16.73
2017-11-30T09:32:20.263Z,15.20
2017-11-30T09:34:47.854Z,16.48
2017-11-30T09:37:15.403Z,16.10
2017-11-30T09:39:42.957Z,17.45
2017-11-30T09:42:10.502Z,15.90
2017-11-30T09:44:38.062Z,17.33
2017-11-30T09:47:06.402Z,16.45
2017-11-30T09:49:34.111Z,16.35
2017-11-30T09:52:01.687Z,17.12
2017-11-30T09:54:30.012Z,16.60
2017-11-30T09:56:57.943Z,16.62
2017-11-30T09:59:25.519Z,17.70
2017-11-30T10:01:53.094Z,17.25
2017-11-30T10:04:20.646Z,16.70
2017-11-30T10:06:48.211Z,16.77
2017-11-30T10:09:15.755Z,16.67
2017-11-30T10:11:43.319Z,15.88
2017-11-30T10:14:11.678Z,16.20
2017-11-30T10:16:39.257Z,15.98
2017-11-30T10:19:06.831Z,17.52
2017-11-30T10:21:34.443Z,15.63
2017-11-30T10:24:02.002Z,17.80
2017-11-30T10:26:29.887Z,21.37
2017-11-30T10:28:58.523Z,17.70
2017-11-30T10:31:26.162Z,16.73
2017-11-30T10:33:54.716Z,16.60
2017-11-30T10:36:23.395Z,16.62
2017-11-30T10:38:51.085Z,16.50
2017-11-30T10:41:19.569Z,16.25
2017-11-30T10:43:47.558Z,16.42
2017-11-30T10:46:16.568Z,15.15
2017-11-30T10:48:44.155Z,16.70
2017-11-30T10:51:12.672Z,15.68
2017-11-30T10:53:41.034Z,15.95
2017-11-30T10:56:08.603Z,16.52
2017-11-30T10:58:36.929Z,17.05
2017-11-30T11:01:04.549Z,18.90
2017-11-30T11:03:32.142Z,18.40
2017-11-30T11:05:59.728Z,18.25
2017-11-30T11:08:27.269Z,18.33
2017-11-30T11:10:54.834Z,17.58
2017-11-30T11:13:23.185Z,17.02
2017-11-30T11:15:51.526Z,17.77
2017-11-30T11:18:19.879Z,18.12
2017-11-30T11:20:47.447Z,17.35
2017-11-30T11:23:15.018Z,18.02
2017-11-30T11:25:42.590Z,18.05
2017-11-30T11:28:10.189Z,18.05
2017-11-30T11:30:37.779Z,20.58
2017-11-30T11:33:05.407Z,18.15
2017-11-30T11:35:33.116Z,19.30
2017-11-30T11:38:00.965Z,19.05
2017-11-30T11:40:28.862Z,18.75
2017-11-30T11:42:56.618Z,16.85
2017-11-30T11:45:25.254Z,17.10
2017-11-30T11:47:52.830Z,15.90
2017-11-30T11:50:21.159Z,17.17
2017-11-30T11:52:49.530Z,15.52
2017-11-30T11:55:17.134Z,16.42
2017-11-30T11:57:44.686Z,15.43
2017-11-30T12:00:12.288Z,16.87
2017-11-30T12:02:39.873Z,17.15
2017-11-30T12:05:07.470Z,15.20
2017-11-30T12:07:35.044Z,16.62
2017-11-30T12:10:02.609Z,16.65
2017-11-30T12:12:32.834Z,16.05
2017-11-30T12:15:00.409Z,15.52
2017-11-30T12:17:27.982Z,14.82
2017-11-30T12:19:55.536Z,14.20
2017-11-30T12:22:23.134Z,15.73
2017-11-30T12:24:50.697Z,14.32
2017-11-30T12:27:18.292Z,13.50
2017-11-30T12:29:45.879Z,14.30
2017-11-30T12:32:13.478Z,14.15
2017-11-30T12:34:41.039Z,14.27
2017-11-30T12:37:08.614Z,14.38
2017-11-30T12:39:36.183Z,15.95
2017-11-30T12:42:03.793Z,18.17
2017-11-30T12:44:31.363Z,16.02
2017-11-30T12:46:59.697Z,14.38
2017-11-30T12:49:27.294Z,14.10
2017-11-30T12:51:54.843Z,13.55
2017-11-30T12:54:23.210Z,14.15
2017-11-30T12:56:50.799Z,13.98
2017-11-30T12:59:18.386Z,15.50
2017-11-30T13:01:46.793Z,15.75
2017-11-30T13:04:15.126Z,16.70
2017-11-30T13:06:42.726Z,20.55
2017-11-30T13:09:10.292Z,20.08
2017-11-30T13:11:38.630Z,21.58
2017-11-30T13:14:06.259Z,18.92
2017-11-30T13:16:33.837Z,19.58
2017-11-30T13:19:01.462Z,19.50
2017-11-30T13:21:29.831Z,20.92
2017-11-30T13:23:58.178Z,17.85
2017-11-30T13:26:26.502Z,17.60
2017-11-30T13:28:54.948Z,17.45
2017-11-30T13:31:22.720Z,18.98
2017-11-30T13:33:50.360Z,18.17
2017-11-30T13:36:17.920Z,16.77
2017-11-30T13:38:46.285Z,16.60
2017-11-30T13:41:14.605Z,20.40
2017-11-30T13:43:42.212Z,27.92
2017-11-30T13:46:10.627Z,23.75
2017-11-30T13:48:39.667Z,32.72
2017-11-30T13:51:07.988Z,19.75
2017-11-30T13:53:35.574Z,15.50
2017-11-30T13:56:03.158Z,20.83
2017-11-30T13:58:31.693Z,17.80
2017-11-30T14:00:59.324Z,17.90
2017-11-30T14:03:26.872Z,17.42
2017-11-30T14:05:54.470Z,27.92
2017-11-30T14:08:22.157Z,17.67
2017-11-30T14:10:49.698Z,29.50
2017-11-30T14:13:17.290Z,25.83
2017-11-30T14:15:44.863Z,18.80
2017-11-30T14:18:13.168Z,17.95
2017-11-30T14:20:40.765Z,21.02
2017-11-30T14:23:08.574Z,17.20
2017-11-30T14:25:36.154Z,18.02
2017-11-30T14:28:04.508Z,24.58
2017-11-30T14:30:32.079Z,24.12
2017-11-30T14:33:00.005Z,19.52
2017-11-30T14:35:28.351Z,19.42
2017-11-30T14:37:56.736Z,18.20
2017-11-30T14:40:26.013Z,18.05
2017-11-30T14:42:54.579Z,18.98
2017-11-30T14:45:22.546Z,28.65
2017-11-30T14:47:50.156Z,26.12
2017-11-30T14:50:17.748Z,20.75
2017-11-30T14:52:46.062Z,18.25
2017-11-30T14:55:14.970Z,16.77
2017-11-30T14:57:42.912Z,20.00
2017-11-30T15:00:10.521Z,20.52
2017-11-30T15:02:38.080Z,21.95
2017-11-30T15:05:05.642Z,20.27
2017-11-30T15:07:33.989Z,17.17
2017-11-30T15:10:01.576Z,30.70
2017-11-30T15:12:30.618Z,16.60
2017-11-30T15:14:58.959Z,17.70
2017-11-30T15:17:27.322Z,62.03
2017-11-30T15:19:54.903Z,44.25
2017-11-30T15:22:22.592Z,41.30
2017-11-30T15:24:50.149Z,20.73
2017-11-30T15:27:17.716Z,30.70
2017-11-30T15:29:45.328Z,15.68
2017-11-30T15:32:13.557Z,8.80
2017-11-30T15:34:41.914Z,7.93
2017-11-30T15:37:09.529Z,12.27
2017-11-30T15:39:37.870Z,10.90
2017-11-30T15:42:06.250Z,10.82
2017-11-30T15:44:34.269Z,10.18
2017-11-30T15:47:02.721Z,8.27
2017-11-30T15:49:31.005Z,9.18
2017-11-30T15:51:58.576Z,9.73
2017-11-30T15:54:26.163Z,10.95
2017-11-30T15:56:53.855Z,11.32
2017-11-30T15:59:21.427Z,10.05
2017-11-30T16:01:49.011Z,8.43
2017-11-30T16:04:17.341Z,9.40
2017-11-30T16:06:45.668Z,10.68
2017-11-30T16:09:14.308Z,11.60
2017-11-30T16:11:43.060Z,9.50
2017-11-30T16:14:10.613Z,8.60
2017-11-30T16:16:38.953Z,8.48
2017-11-30T16:19:06.494Z,9.48
2017-11-30T16:21:34.674Z,11.12
2017-11-30T16:24:02.242Z,8.65
2017-11-30T16:26:29.815Z,9.13
2017-11-30T16:28:58.132Z,8.32
2017-11-30T16:31:25.690Z,7.68
2017-11-30T16:33:53.234Z,8.75
2017-11-30T16:36:20.837Z,9.27
2017-11-30T16:38:48.393Z,8.68
2017-11-30T16:41:16.733Z,9.02
2017-11-30T16:43:44.309Z,10.35
2017-11-30T16:46:11.880Z,11.25
2017-11-30T16:48:39.468Z,11.48
2017-11-30T16:51:07.019Z,10.02
2017-11-30T16:53:34.611Z,9.80
2017-11-30T16:56:23.661Z,10.00
2017-11-30T16:58:51.228Z,9.57
2017-11-30T17:01:18.818Z,10.77
2017-11-30T17:03:46.379Z,9.60
2017-11-30T17:06:13.941Z,9.73
2017-11-30T17:08:41.551Z,10.35
2017-11-30T17:11:09.112Z,11.52
2017-11-30T17:13:36.692Z,11.85
2017-11-30T17:16:04.302Z,11.90
2017-11-30T17:18:31.853Z,12.00
2017-11-30T17:20:59.432Z,12.57
2017-11-30T17:23:27.753Z,11.32
2017-11-30T17:25:55.327Z,10.40
2017-11-30T17:28:22.895Z,11.20
2017-11-30T17:30:50.597Z,12.35
2017-11-30T17:33:18.971Z,11.50
2017-11-30T17:35:46.750Z,12.70
2017-11-30T17:41:14.283Z,11.85
2017-11-30T17:43:42.091Z,11.73
2017-11-30T17:46:10.135Z,13.55
2017-11-30T17:48:39.351Z,14.63
2017-11-30T17:51:06.992Z,12.90
2017-11-30T17:53:34.561Z,11.80
2017-11-30T17:56:03.804Z,11.95
2017-11-30T17:58:34.416Z,13.68
2017-11-30T18:01:02.816Z,13.13
2017-11-30T18:03:32.209Z,14.77
2017-11-30T18:06:03.382Z,18.25
2017-11-30T18:08:32.304Z,17.98
2017-11-30T18:11:02.071Z,13.30
2017-11-30T18:13:30.717Z,13.48
2017-11-30T18:15:59.193Z,14.63
2017-11-30T18:18:26.742Z,14.93
2017-11-30T18:20:54.333Z,16.30
2017-11-30T18:23:23.199Z,14.85
2017-11-30T18:25:51.724Z,14.55
2017-11-30T18:28:19.277Z,17.87
2017-11-30T18:30:46.854Z,13.88
2017-11-30T18:33:15.177Z,27.20
2017-11-30T18:35:42.751Z,15.73
2017-11-30T18:38:10.337Z,15.98
2017-11-30T18:40:37.903Z,17.35
2017-11-30T18:43:05.497Z,16.42
2017-11-30T18:45:33.059Z,16.85
2017-11-30T18:48:00.645Z,14.20
2017-11-30T18:50:28.229Z,13.85
2017-11-30T18:52:55.782Z,17.12
2017-11-30T18:55:23.383Z,18.55
2017-11-30T18:57:51.734Z,22.15
2017-11-30T19:00:19.337Z,19.48
2017-11-30T19:02:47.767Z,16.87
2017-11-30T19:05:16.130Z,16.40
2017-11-30T19:07:43.784Z,15.00
2017-11-30T19:10:11.353Z,17.25
2017-11-30T19:12:39.535Z,17.35
2017-11-30T19:15:07.723Z,20.90
2017-11-30T19:17:36.608Z,14.50
2017-11-30T19:20:04.243Z,12.85
2017-11-30T19:22:32.030Z,10.63
2017-11-30T19:24:59.765Z,10.73
2017-11-30T19:27:27.349Z,19.33
2017-11-30T19:29:55.057Z,13.68
2017-11-30T19:32:23.396Z,13.27
2017-11-30T19:34:52.278Z,10.25
2017-11-30T19:37:20.120Z,23.27
2017-11-30T19:39:48.078Z,11.60
2017-11-30T19:42:15.897Z,9.45
2017-11-30T19:44:43.508Z,9.95
2017-11-30T19:47:12.021Z,8.48
2017-11-30T19:49:40.911Z,10.30
2017-11-30T19:52:08.653Z,12.02
2017-11-30T19:54:36.252Z,14.55
2017-11-30T19:57:03.953Z,13.38
2017-11-30T19:59:31.601Z,13.35
2017-11-30T20:01:59.189Z,13.70
2017-11-30T20:04:27.681Z,12.77
2017-11-30T20:06:55.263Z,15.30
2017-11-30T20:09:22.837Z,13.02
2017-11-30T20:11:51.451Z,13.15
2017-11-30T20:14:19.272Z,12.95
2017-11-30T20:16:46.887Z,15.52
2017-11-30T20:19:14.882Z,16.85
2017-11-30T20:21:42.540Z,15.75
2017-11-30T20:24:11.086Z,12.93
2017-11-30T20:26:38.680Z,15.18
2017-11-30T20:29:08.553Z,17.75
2017-11-30T20:31:37.472Z,20.62
2017-11-30T20:34:05.118Z,18.20
2017-11-30T20:36:32.659Z,20.15
2017-11-30T20:39:00.377Z,20.17
2017-11-30T20:41:29.535Z,28.55
2017-11-30T20:43:57.788Z,14.23
2017-11-30T20:46:26.602Z,34.95
2017-11-30T20:48:54.209Z,21.73
2017-11-30T20:51:21.761Z,13.20
2017-11-30T20:53:50.090Z,12.57
2017-11-30T20:56:17.808Z,13.65
2017-11-30T20:58:45.440Z,13.23
2017-11-30T21:01:13.239Z,14.65
2017-11-30T21:03:41.791Z,14.45
2017-11-30T21:06:09.376Z,13.75
2017-11-30T21:08:36.998Z,13.43
2017-11-30T21:11:04.646Z,16.50
2017-11-30T21:13:32.210Z,22.37
2017-11-30T21:15:59.866Z,16.58
2017-11-30T21:18:27.527Z,14.80
2017-11-30T21:20:55.088Z,15.35
2017-11-30T21:23:22.755Z,15.05
2017-11-30T21:25:50.512Z,14.25
2017-11-30T21:28:18.091Z,13.65
2017-11-30T21:30:46.417Z,12.05
2017-11-30T21:33:14.178Z,12.30
2017-11-30T21:35:41.937Z,11.45
2017-11-30T21:38:09.623Z,12.13
2017-11-30T21:40:37.892Z,11.32
2017-11-30T21:43:05.709Z,11.90
2017-11-30T21:45:33.424Z,12.65
2017-11-30T21:48:01.059Z,12.23
2017-11-30T21:50:30.137Z,12.48
2017-11-30T21:52:57.874Z,12.52
2017-11-30T21:55:25.790Z,11.82
2017-11-30T21:57:54.231Z,11.45
2017-11-30T22:00:22.005Z,12.15
2017-11-30T22:02:49.557Z,11.40
2017-11-30T22:05:17.384Z,12.52
2017-11-30T22:07:44.964Z,13.30
2017-11-30T22:10:15.546Z,11.20
2017-11-30T22:12:44.837Z,11.75
2017-11-30T22:15:14.639Z,13.27
2017-11-30T22:17:42.514Z,11.30
2017-11-30T22:20:10.071Z,11.18
2017-11-30T22:22:37.630Z,10.75
2017-11-30T22:25:05.202Z,12.65
2017-11-30T22:27:32.769Z,11.23
2017-11-30T22:30:00.322Z,12.20
2017-11-30T22:32:27.884Z,11.90
2017-11-30T22:34:55.449Z,11.65
2017-11-30T22:37:23.001Z,11.30
2017-11-30T22:39:50.563Z,11.85
2017-11-30T22:42:18.128Z,11.30
2017-11-30T22:44:45.720Z,12.00
2017-11-30T22:47:13.305Z,11.98
2017-11-30T22:49:41.646Z,11.30
2017-11-30T22:52:09.973Z,11.00
2017-11-30T22:54:37.536Z,11.45
2017-11-30T22:57:05.102Z,14.27
2017-11-30T22:59:32.681Z,15.43
2017-11-30T23:02:00.228Z,15.70
2017-11-30T23:04:27.788Z,17.25
2017-11-30T23:06:55.334Z,16.23
2017-11-30T23:09:22.908Z,13.48
2017-11-30T23:11:50.582Z,12.85
2017-11-30T23:14:18.153Z,12.35
2017-11-30T23:16:45.711Z,13.38
2017-11-30T23:19:13.927Z,13.00
2017-11-30T23:21:41.501Z,14.05
2017-11-30T23:24:09.116Z,13.85
2017-11-30T23:26:37.469Z,14.13
2017-11-30T23:29:05.034Z,13.48
2017-11-30T23:31:32.625Z,14.10
2017-11-30T23:34:00.970Z,13.02
2017-11-30T23:36:28.535Z,14.57
2017-11-30T23:38:56.175Z,14.40
2017-11-30T23:41:23.746Z,14.63
2017-11-30T23:43:51.306Z,15.38
2017-11-30T23:46:18.849Z,15.88
2017-11-30T23:48:46.407Z,14.00
2017-11-30T23:51:13.973Z,15.38
2017-11-30T23:53:41.544Z,14.80
2017-11-30T23:56:09.106Z,16.25
2017-11-30T23:58:36.649Z,16.95
